Time;durP1;ratioP1;P1;durP2;ratioP2;P2;SDS_P1;SDS_P2;PMS_P1;PMS_P2;Temp;Humidity;BMP_temperature;BMP_pressure;BME280_temperature;BME280_humidity;BME280_pressure;Samples;Min_cycle;Max_cycle;Signal;HPM_P1;HPM_P2
2023/04/20 00:01:47;;;;;;;5.00;1.85;;;11.80;35.90;;;;;;5033598;28;20367;-68
2023/04/20 00:04:14;;;;;;;5.35;2.10;;;11.70;36.00;;;;;;5033613;28;20467;-67
2023/04/20 00:06:44;;;;;;;5.97;2.50;;;11.70;36.10;;;;;;5029738;28;20033;-68
2023/04/20 00:09:12;;;;;;;7.90;2.17;;;11.70;36.30;;;;;;5034377;28;20037;-68
2023/04/20 00:11:38;;;;;;;5.65;2.53;;;11.70;36.50;;;;;;5033993;28;20025;-68
2023/04/20 00:14:04;;;;;;;7.03;2.13;;;11.70;36.60;;;;;;5030933;28;20048;-68
2023/04/20 00:16:31;;;;;;;6.10;2.05;;;11.60;36.70;;;;;;5033025;28;20450;-68
2023/04/20 00:18:59;;;;;;;4.72;1.95;;;11.50;36.80;;;;;;5032983;28;20359;-67
2023/04/20 00:21:26;;;;;;;5.72;2.25;;;11.60;36.90;;;;;;5030815;28;20037;-68
2023/04/20 00:23:51;;;;;;;5.70;2.22;;;11.60;37.00;;;;;;5032629;28;20518;-67
2023/04/20 00:26:18;;;;;;;7.28;2.20;;;11.60;37.10;;;;;;5033864;28;20140;-67
2023/04/20 00:28:49;;;;;;;4.17;1.83;;;11.50;37.10;;;;;;5017210;28;20116;-68
2023/04/20 00:31:15;;;;;;;4.13;1.92;;;11.50;37.10;;;;;;5033306;28;20360;-68
2023/04/20 00:33:41;;;;;;;5.07;2.10;;;11.50;37.20;;;;;;5032964;28;20117;-68
2023/04/20 00:36:07;;;;;;;5.40;2.40;;;11.50;37.20;;;;;;5033808;28;20144;-68
2023/04/20 00:38:34;;;;;;;6.20;2.22;;;11.50;37.20;;;;;;5029075;28;20105;-67
2023/04/20 00:41:00;;;;;;;5.30;2.08;;;11.40;37.30;;;;;;5029492;28;20331;-67
2023/04/20 00:43:26;;;;;;;9.73;2.90;;;11.40;37.40;;;;;;5035356;28;20362;-68
2023/04/20 00:45:52;;;;;;;5.38;2.30;;;11.40;37.40;;;;;;5037188;28;20529;-68
2023/04/20 00:48:18;;;;;;;4.85;2.35;;;11.40;37.50;;;;;;5033092;28;20032;-68
2023/04/20 00:50:45;;;;;;;5.72;2.22;;;11.40;37.60;;;;;;5034023;28;20327;-68
2023/04/20 00:53:11;;;;;;;4.93;2.10;;;11.40;37.70;;;;;;5034275;28;20041;-68
2023/04/20 00:55:38;;;;;;;5.43;2.08;;;11.40;37.70;;;;;;5036642;28;20044;-67
2023/04/20 00:58:04;;;;;;;5.57;2.40;;;11.40;37.70;;;;;;5034348;28;20029;-67
2023/04/20 01:00:32;;;;;;;5.60;2.30;;;11.40;37.80;;;;;;5034971;28;20079;-68
2023/04/20 01:02:58;;;;;;;6.68;2.85;;;11.40;38.00;;;;;;5032787;28;20117;-68
2023/04/20 01:05:25;;;;;;;6.50;2.67;;;11.30;38.00;;;;;;5036657;28;20101;-68
2023/04/20 01:07:51;;;;;;;6.05;2.35;;;11.30;38.20;;;;;;5034547;28;20059;-68
2023/04/20 01:10:17;;;;;;;6.20;2.20;;;11.30;38.40;;;;;;5032991;28;20049;-67
2023/04/20 01:12:43;;;;;;;7.50;2.65;;;11.20;38.50;;;;;;5034705;28;20022;-67
2023/04/20 01:15:10;;;;;;;4.97;2.35;;;11.20;38.70;;;;;;5034022;28;20124;-68
2023/04/20 01:17:38;;;;;;;6.35;2.65;;;11.20;38.90;;;;;;5035350;28;20029;-67
2023/04/20 01:20:08;;;;;;;5.20;2.50;;;11.20;39.10;;;;;;5030853;28;20057;-68
2023/04/20 01:22:45;;;;;;;5.63;2.47;;;11.20;39.40;;;;;;5037002;28;20033;-67
2023/04/20 01:25:11;;;;;;;4.65;2.22;;;11.20;39.50;;;;;;5016030;28;20426;-68
2023/04/20 01:27:37;;;;;;;7.07;2.33;;;11.20;39.60;;;;;;5036616;28;20076;-68
2023/04/20 01:30:03;;;;;;;5.72;2.40;;;11.20;39.80;;;;;;5033492;28;20108;-68
2023/04/20 01:32:29;;;;;;;6.57;2.95;;;11.30;40.00;;;;;;5034267;28;20033;-67
2023/04/20 01:34:57;;;;;;;5.68;2.42;;;11.30;40.20;;;;;;5017432;28;20428;-67
2023/04/20 01:37:24;;;;;;;4.40;2.03;;;11.30;40.40;;;;;;5024043;28;20033;-67
2023/04/20 01:39:49;;;;;;;7.03;2.83;;;11.40;40.80;;;;;;5034188;28;20021;-68
2023/04/20 01:42:15;;;;;;;5.80;2.28;;;11.40;40.90;;;;;;5037380;28;20409;-68
2023/04/20 01:44:41;;;;;;;5.93;2.47;;;11.40;41.10;;;;;;5031073;28;20036;-67
2023/04/20 01:47:07;;;;;;;5.30;2.47;;;11.40;42.00;;;;;;5035055;28;20104;-67
2023/04/20 01:49:32;;;;;;;5.90;2.60;;;11.40;41.60;;;;;;5034253;28;20017;-67
2023/04/20 01:51:58;;;;;;;6.28;2.20;;;11.40;41.80;;;;;;5033497;28;20348;-67
2023/04/20 01:54:24;;;;;;;7.53;2.20;;;11.40;42.00;;;;;;5031116;28;20029;-67
2023/04/20 01:56:49;;;;;;;5.93;2.53;;;11.40;42.20;;;;;;5035098;28;20037;-67
2023/04/20 01:59:15;;;;;;;6.40;2.60;;;11.40;42.30;;;;;;5035236;28;20036;-67
2023/04/20 02:01:41;;;;;;;6.28;2.33;;;11.30;42.50;;;;;;5038950;28;20549;-68
2023/04/20 02:04:07;;;;;;;5.68;2.28;;;11.30;42.70;;;;;;5033288;28;20076;-67
2023/04/20 02:06:33;;;;;;;7.22;2.83;;;11.30;42.90;;;;;;5036048;28;20022;-68
2023/04/20 02:08:59;;;;;;;5.82;2.30;;;11.30;43.10;;;;;;5036478;28;20033;-67
2023/04/20 02:11:25;;;;;;;7.88;2.55;;;11.20;43.30;;;;;;5036076;28;20338;-67
2023/04/20 02:13:51;;;;;;;6.13;2.60;;;11.20;43.40;;;;;;5037661;28;20060;-67
2023/04/20 02:16:20;;;;;;;6.15;2.50;;;11.20;43.60;;;;;;5032412;28;20462;-67
2023/04/20 02:18:46;;;;;;;4.88;2.20;;;11.20;43.70;;;;;;5034879;28;20465;-67
2023/04/20 02:21:12;;;;;;;5.63;2.70;;;11.20;43.80;;;;;;5034655;28;20032;-68
2023/04/20 02:23:38;;;;;;;6.15;2.60;;;11.20;44.00;;;;;;5033803;28;20508;-68
2023/04/20 02:26:04;;;;;;;7.00;2.60;;;11.20;44.10;;;;;;5029749;28;20033;-67
2023/04/20 02:28:30;;;;;;;7.22;3.05;;;11.20;44.20;;;;;;5033902;28;20319;-67
2023/04/20 02:30:56;;;;;;;5.82;2.85;;;11.20;44.40;;;;;;5033346;28;20025;-67
2023/04/20 02:33:22;;;;;;;6.50;2.45;;;11.20;44.40;;;;;;5033435;28;20028;-67
2023/04/20 02:35:52;;;;;;;5.13;2.35;;;11.20;44.60;;;;;;5016912;28;20112;-67
2023/04/20 02:38:18;;;;;;;5.45;2.65;;;11.20;44.70;;;;;;5035398;28;20117;-67
2023/04/20 02:40:43;;;;;;;5.43;2.50;;;11.20;44.80;;;;;;5036741;28;20059;-68
2023/04/20 02:43:09;;;;;;;6.57;2.70;;;11.20;44.90;;;;;;5035048;28;20392;-66
2023/04/20 02:45:37;;;;;;;6.60;2.83;;;11.20;45.00;;;;;;5017811;28;20114;-67
2023/04/20 02:48:03;;;;;;;5.80;2.60;;;11.20;45.10;;;;;;5033014;28;20017;-67
2023/04/20 02:50:30;;;;;;;6.68;2.80;;;11.20;45.20;;;;;;5031296;28;20324;-67
2023/04/20 02:53:25;;;;;;;6.18;2.70;;;11.10;45.30;;;;;;5033466;28;20026;-67
2023/04/20 02:56:03;;;;;;;6.07;2.45;;;11.20;45.50;;;;;;5032114;28;20058;-67
2023/04/20 02:58:53;;;;;;;5.72;2.92;;;11.20;45.50;;;;;;5032631;28;20030;-67
2023/04/20 03:01:42;;;;;;;6.05;2.60;;;11.20;45.60;;;;;;5025998;28;20042;-66
2023/04/20 03:04:18;;;;;;;5.45;2.53;;;11.20;45.80;;;;;;5031498;28;20025;-67
2023/04/20 03:07:03;;;;;;;8.10;2.15;;;11.20;46.50;;;;;;5030908;28;20048;-66
2023/04/20 03:09:32;;;;;;;7.35;2.60;;;11.20;45.90;;;;;;5033602;28;20021;-66
2023/04/20 03:12:04;;;;;;;;;;;11.20;46.10;;;;;;5033492;28;20443;-67
2023/04/20 03:14:48;;;;;;;6.32;2.60;;;11.20;46.00;;;;;;5034044;28;20261;-67
2023/04/20 03:17:15;;;;;;;5.80;2.40;;;11.10;46.10;;;;;;5032654;28;20339;-67
2023/04/20 03:19:40;;;;;;;5.70;2.58;;;11.20;46.30;;;;;;5033070;28;20052;-67
2023/04/20 03:22:06;;;;;;;6.15;2.70;;;11.20;46.50;;;;;;5032051;28;20454;-67
2023/04/20 03:24:33;;;;;;;6.30;2.25;;;11.10;46.60;;;;;;5031019;28;20030;-67
2023/04/20 03:27:03;;;;;;;5.10;2.45;;;11.10;46.70;;;;;;5031458;28;20014;-67
2023/04/20 03:29:40;;;;;;;6.43;2.85;;;11.10;46.90;;;;;;5032383;28;20079;-67
2023/04/20 03:32:06;;;;;;;6.80;2.60;;;11.10;46.90;;;;;;5029298;28;20442;-67
2023/04/20 03:34:32;;;;;;;7.85;3.15;;;11.20;47.00;;;;;;5031351;28;20025;-67
2023/04/20 03:36:58;;;;;;;6.20;2.80;;;11.10;47.10;;;;;;5032375;28;20037;-67
2023/04/20 03:39:23;;;;;;;6.88;2.78;;;11.10;47.20;;;;;;5033250;28;20155;-67
2023/04/20 03:41:49;;;;;;;7.70;2.83;;;11.10;47.30;;;;;;5032636;28;20182;-67
2023/04/20 03:44:15;;;;;;;4.90;2.20;;;11.10;47.40;;;;;;5032322;28;20029;-67
2023/04/20 03:46:41;;;;;;;8.07;2.90;;;11.10;47.50;;;;;;5014343;28;20021;-67
2023/04/20 03:49:07;;;;;;;6.80;2.55;;;11.10;47.60;;;;;;5033512;28;20458;-67
2023/04/20 03:51:34;;;;;;;6.10;2.53;;;11.10;47.60;;;;;;5030135;28;20018;-67
2023/04/20 03:53:59;;;;;;;5.68;2.33;;;11.20;47.70;;;;;;5032696;28;20045;-67
2023/04/20 03:56:26;;;;;;;4.60;2.17;;;11.10;47.80;;;;;;5031634;28;20029;-67
2023/04/20 03:58:53;;;;;;;6.70;2.70;;;11.10;47.90;;;;;;5032455;28;20052;-67
2023/04/20 04:01:22;;;;;;;7.13;2.60;;;11.10;47.90;;;;;;5031272;28;20013;-67
2023/04/20 04:03:49;;;;;;;5.38;2.55;;;11.20;48.00;;;;;;5015585;28;20116;-67
2023/04/20 04:06:16;;;;;;;6.72;3.05;;;11.10;48.00;;;;;;5029841;28;20049;-67
2023/04/20 04:08:41;;;;;;;5.43;2.65;;;11.10;48.00;;;;;;5014286;28;20057;-67
2023/04/20 04:11:07;;;;;;;6.20;2.42;;;11.10;48.10;;;;;;5030725;28;20365;-67
2023/04/20 04:13:33;;;;;;;6.25;2.35;;;11.10;48.20;;;;;;5032558;28;20100;-67
2023/04/20 04:15:59;;;;;;;6.40;2.60;;;11.10;48.30;;;;;;5034775;28;20687;-67
2023/04/20 04:18:31;;;;;;;7.13;2.90;;;11.10;48.30;;;;;;5036072;28;20327;-67
2023/04/20 04:20:57;;;;;;;6.27;2.30;;;11.10;48.40;;;;;;5036011;28;20048;-67
2023/04/20 04:23:23;;;;;;;6.28;2.60;;;11.10;48.40;;;;;;5036650;28;20534;-67
2023/04/20 04:25:58;;;;;;;6.20;2.53;;;11.10;48.50;;;;;;5020451;28;20428;-66
2023/04/20 04:28:25;;;;;;;6.18;3.00;;;11.10;48.60;;;;;;5017724;28;20116;-67
2023/04/20 04:31:04;;;;;;;6.90;2.70;;;11.10;48.70;;;;;;5035534;28;20025;-67
2023/04/20 04:33:33;;;;;;;5.65;2.42;;;11.10;48.80;;;;;;5034687;28;20101;-67
2023/04/20 04:36:00;;;;;;;7.90;2.70;;;11.10;48.80;;;;;;5038168;28;20026;-67
2023/04/20 04:38:26;;;;;;;6.55;2.45;;;11.10;48.80;;;;;;5015966;28;20029;-67
2023/04/20 04:40:52;;;;;;;8.75;2.58;;;11.10;48.80;;;;;;5034511;28;20033;-67
2023/04/20 04:43:19;;;;;;;5.03;2.40;;;11.10;48.90;;;;;;5034165;28;20033;-68
2023/04/20 04:45:57;;;;;;;5.30;2.67;;;11.10;49.00;;;;;;5033939;28;20021;-67
2023/04/20 04:48:23;;;;;;;5.10;2.40;;;11.10;49.00;;;;;;5035594;28;20025;-67
2023/04/20 04:50:48;;;;;;;6.60;2.53;;;11.10;49.00;;;;;;5039622;28;20026;-67
2023/04/20 04:53:14;;;;;;;6.82;2.90;;;11.00;49.10;;;;;;5036255;28;20017;-66
2023/04/20 04:55:40;;;;;;;5.97;2.80;;;11.00;49.10;;;;;;5046919;28;20025;-67
2023/04/20 04:58:06;;;;;;;6.05;3.00;;;11.00;49.10;;;;;;5039905;28;20036;-67
2023/04/20 05:00:31;;;;;;;7.38;2.97;;;11.00;49.20;;;;;;5036405;28;20037;-66
2023/04/20 05:02:57;;;;;;;6.75;2.90;;;11.00;49.30;;;;;;5034721;28;20060;-67
2023/04/20 05:05:24;;;;;;;7.72;2.97;;;11.10;49.40;;;;;;5049934;28;20034;-67
2023/04/20 05:07:50;;;;;;;5.82;2.83;;;11.10;49.40;;;;;;5032684;28;20140;-66
2023/04/20 05:10:15;;;;;;;6.20;2.70;;;11.10;49.50;;;;;;5038582;28;20056;-66
2023/04/20 05:12:41;;;;;;;6.43;2.40;;;11.10;49.50;;;;;;5035826;28;20055;-66
2023/04/20 05:15:07;;;;;;;6.22;2.63;;;11.10;49.60;;;;;;5046574;28;20163;-66
2023/04/20 05:17:33;;;;;;;5.50;2.70;;;11.10;49.60;;;;;;5031959;28;20455;-67
2023/04/20 05:19:59;;;;;;;6.20;2.92;;;11.10;49.70;;;;;;5044393;28;20040;-66
2023/04/20 05:22:25;;;;;;;6.40;2.80;;;11.10;49.80;;;;;;5048733;28;20122;-66
2023/04/20 05:24:51;;;;;;;8.60;2.60;;;11.10;49.80;;;;;;5048693;28;20123;-67
2023/04/20 05:27:16;;;;;;;6.45;2.60;;;11.10;49.80;;;;;;5047463;28;20076;-66
2023/04/20 05:29:42;;;;;;;7.13;3.03;;;11.20;49.90;;;;;;5046931;28;20469;-67
2023/04/20 05:32:08;;;;;;;6.20;2.90;;;11.20;49.90;;;;;;5052160;28;20029;-66
2023/04/20 05:34:34;;;;;;;6.20;2.70;;;11.20;49.90;;;;;;5038482;28;20017;-66
2023/04/20 05:37:00;;;;;;;6.78;2.92;;;11.20;50.00;;;;;;5044557;28;20339;-67
2023/04/20 05:39:26;;;;;;;6.43;2.80;;;11.30;50.10;;;;;;5048029;28;20112;-67
2023/04/20 05:41:52;;;;;;;7.85;2.88;;;11.30;50.20;;;;;;5044668;28;20499;-66
2023/04/20 05:44:18;;;;;;;6.90;3.00;;;11.30;50.20;;;;;;5045153;28;20403;-66
2023/04/20 05:46:43;;;;;;;5.75;2.60;;;11.30;50.30;;;;;;5049442;28;20458;-66
2023/04/20 05:49:09;;;;;;;7.38;3.08;;;11.30;50.40;;;;;;5031809;28;20477;-68
2023/04/20 05:51:35;;;;;;;5.35;2.78;;;11.40;50.40;;;;;;5036711;28;20021;-67
2023/04/20 05:54:01;;;;;;;7.00;3.15;;;11.50;50.90;;;;;;5030001;28;20037;-65
2023/04/20 05:56:26;;;;;;;6.40;2.92;;;11.50;50.20;;;;;;5033890;28;20025;-67
2023/04/20 05:58:54;;;;;;;7.20;2.72;;;11.50;50.20;;;;;;5035423;28;20454;-68
2023/04/20 06:01:21;;;;;;;7.38;2.95;;;11.50;50.20;;;;;;5034821;28;20399;-67
2023/04/20 06:03:48;;;;;;;6.22;2.70;;;11.50;50.20;;;;;;5044325;28;20079;-66
2023/04/20 06:06:14;;;;;;;8.10;3.03;;;11.60;50.30;;;;;;5042319;28;20033;-66
2023/04/20 06:08:41;;;;;;;6.68;2.92;;;11.60;50.30;;;;;;5038569;28;20492;-66
2023/04/20 06:11:06;;;;;;;7.75;2.90;;;11.70;50.10;;;;;;5035735;28;20431;-67
2023/04/20 06:13:32;;;;;;;6.60;2.50;;;12.00;49.80;;;;;;5023447;28;20036;-67
2023/04/20 06:15:58;;;;;;;8.63;3.47;;;12.20;49.60;;;;;;5032055;28;20044;-66
2023/04/20 06:18:24;;;;;;;5.15;2.40;;;12.30;49.50;;;;;;5045804;28;20036;-68
2023/04/20 06:20:49;;;;;;;6.80;3.03;;;12.30;49.40;;;;;;5038416;28;20028;-67
2023/04/20 06:23:15;;;;;;;5.80;2.80;;;12.30;49.30;;;;;;5043650;28;20445;-68
2023/04/20 06:25:43;;;;;;;9.75;3.47;;;12.30;49.20;;;;;;5034482;28;20026;-64
2023/04/20 06:28:08;;;;;;;9.00;3.13;;;12.20;49.20;;;;;;5036520;28;20033;-66
2023/04/20 06:30:35;;;;;;;6.47;2.97;;;12.20;49.30;;;;;;5015415;28;20089;-66
2023/04/20 06:33:01;;;;;;;8.45;3.17;;;12.20;49.20;;;;;;5040266;28;20350;-67
2023/04/20 06:35:27;;;;;;;6.32;3.03;;;12.30;49.10;;;;;;5039681;28;20216;-69
2023/04/20 06:37:56;;;;;;;7.03;3.00;;;12.50;48.90;;;;;;5034562;28;20122;-69
2023/04/20 06:40:25;;;;;;;6.07;3.08;;;12.50;48.80;;;;;;5037327;28;20040;-71
2023/04/20 06:42:51;;;;;;;7.53;2.72;;;12.50;48.80;;;;;;5034716;28;20427;-70
2023/04/20 06:45:17;;;;;;;7.80;3.17;;;12.50;48.90;;;;;;5043867;28;20033;-67
2023/04/20 06:47:43;;;;;;;6.72;3.22;;;12.60;48.70;;;;;;5033574;28;20022;-72
2023/04/20 06:50:10;;;;;;;7.25;3.00;;;12.60;48.70;;;;;;5044183;28;20025;-69
2023/04/20 06:52:37;;;;;;;8.25;3.45;;;12.60;48.60;;;;;;5039107;28;20473;-71
2023/04/20 06:55:03;;;;;;;9.27;3.17;;;12.60;48.60;;;;;;5048455;28;20111;-70
2023/04/20 06:57:29;;;;;;;6.97;2.80;;;12.60;48.70;;;;;;5036586;28;20454;-67
2023/04/20 06:59:54;;;;;;;6.43;3.03;;;12.80;48.80;;;;;;5043201;28;20056;-66
2023/04/20 07:02:20;;;;;;;8.05;3.20;;;13.10;48.40;;;;;;5033031;28;20076;-68
2023/04/20 07:04:46;;;;;;;7.18;3.22;;;13.20;48.00;;;;;;5042483;28;20451;-71
2023/04/20 07:07:11;;;;;;;6.93;3.03;;;13.20;47.90;;;;;;5037381;28;20033;-72
2023/04/20 07:09:37;;;;;;;7.55;3.25;;;13.10;48.00;;;;;;5049366;28;20037;-72
2023/04/20 07:12:03;;;;;;;7.72;3.55;;;13.00;48.20;;;;;;5033115;28;20386;-72
2023/04/20 07:14:29;;;;;;;9.75;3.50;;;12.90;48.40;;;;;;5042782;28;20075;-71
2023/04/20 07:16:54;;;;;;;7.28;3.60;;;12.80;48.60;;;;;;5027510;28;20033;-71
2023/04/20 07:19:20;;;;;;;6.55;3.00;;;12.70;48.80;;;;;;5044768;28;20331;-72
2023/04/20 07:21:46;;;;;;;8.07;3.70;;;12.70;48.90;;;;;;5037907;28;20045;-71
2023/04/20 07:24:12;;;;;;;6.82;3.20;;;12.60;49.00;;;;;;5044948;28;20108;-71
2023/04/20 07:26:39;;;;;;;6.57;2.95;;;12.70;49.20;;;;;;5038199;28;20091;-72
2023/04/20 07:29:05;;;;;;;7.90;4.00;;;12.60;49.30;;;;;;5038974;28;20052;-70
2023/04/20 07:31:31;;;;;;;8.73;3.75;;;12.50;49.40;;;;;;5038916;28;20167;-71
2023/04/20 07:33:56;;;;;;;8.18;3.83;;;12.40;49.70;;;;;;5050619;28;20037;-70
2023/04/20 07:36:22;;;;;;;7.55;3.95;;;12.20;49.80;;;;;;5048120;28;20036;-73
2023/04/20 07:38:48;;;;;;;8.68;4.07;;;12.20;50.00;;;;;;5018054;28;20052;-72
2023/04/20 07:41:15;;;;;;;8.15;3.83;;;12.20;50.30;;;;;;5031263;28;20017;-71
2023/04/20 07:43:40;;;;;;;8.32;4.00;;;12.20;50.40;;;;;;5018694;28;20075;-69
2023/04/20 07:46:06;;;;;;;7.93;4.13;;;12.20;50.30;;;;;;5035231;28;20303;-70
2023/04/20 07:48:33;;;;;;;7.90;4.20;;;12.30;50.30;;;;;;5033691;28;20057;-72
2023/04/20 07:50:59;;;;;;;8.02;3.83;;;12.30;50.30;;;;;;5022373;28;20052;-72
2023/04/20 07:53:28;;;;;;;9.77;3.80;;;12.30;50.20;;;;;;5037294;28;20083;-71
2023/04/20 07:55:54;;;;;;;6.55;3.70;;;12.50;50.20;;;;;;5050094;28;20029;-72
2023/04/20 07:58:20;;;;;;;7.30;3.92;;;12.50;50.10;;;;;;5043716;28;20511;-74
2023/04/20 08:00:46;;;;;;;8.52;3.78;;;12.60;50.00;;;;;;5029723;28;20033;-73
2023/04/20 08:03:13;;;;;;;8.93;3.67;;;12.70;49.90;;;;;;5040731;28;20086;-74
2023/04/20 08:05:39;;;;;;;7.55;4.13;;;12.80;49.70;;;;;;5040546;28;20033;-76
2023/04/20 08:08:05;;;;;;;8.57;4.32;;;12.80;49.70;;;;;;5038388;28;20293;-73
2023/04/20 08:10:32;;;;;;;7.55;3.80;;;12.80;49.80;;;;;;5039449;28;20022;-74
2023/04/20 08:12:58;;;;;;;7.32;4.35;;;12.80;49.80;;;;;;5037719;28;20108;-73
2023/04/20 08:15:25;;;;;;;10.43;4.18;;;12.80;49.90;;;;;;5041097;28;20041;-73
2023/04/20 08:17:51;;;;;;;8.63;4.53;;;12.90;49.80;;;;;;5035610;28;20415;-74
2023/04/20 08:20:18;;;;;;;7.68;4.00;;;13.00;49.70;;;;;;5040510;28;20020;-73
2023/04/20 08:22:44;;;;;;;9.00;4.00;;;13.00;49.70;;;;;;5020587;28;20025;-73
2023/04/20 08:25:10;;;;;;;8.52;3.85;;;13.00;49.70;;;;;;5036650;28;20029;-73
2023/04/20 08:27:36;;;;;;;7.63;4.10;;;12.90;49.80;;;;;;5037716;28;20025;-73
2023/04/20 08:30:03;;;;;;;7.22;3.40;;;12.80;49.90;;;;;;5036688;28;20362;-73
2023/04/20 08:32:30;;;;;;;7.60;4.10;;;12.80;50.00;;;;;;5038245;28;20087;-73
2023/04/20 08:34:56;;;;;;;9.75;3.70;;;12.90;50.20;;;;;;5036644;28;20064;-73
2023/04/20 08:37:22;;;;;;;7.75;3.95;;;12.80;50.20;;;;;;5037185;28;20426;-73
2023/04/20 08:39:48;;;;;;;8.00;4.05;;;12.90;50.20;;;;;;5040024;28;20080;-72
2023/04/20 08:42:15;;;;;;;7.50;4.07;;;12.90;50.20;;;;;;5035950;28;20116;-73
2023/04/20 08:44:42;;;;;;;10.88;3.80;;;12.80;50.20;;;;;;5039515;28;20327;-72
2023/04/20 08:47:12;;;;;;;8.70;4.53;;;12.80;50.30;;;;;;5050393;28;20509;-73
2023/04/20 08:49:38;;;;;;;8.93;3.60;;;12.70;50.50;;;;;;5054009;28;20450;-73
2023/04/20 08:52:05;;;;;;;7.57;4.47;;;12.70;50.70;;;;;;5056104;28;20059;-73
2023/04/20 08:54:31;;;;;;;9.63;3.80;;;12.70;50.70;;;;;;5056985;28;20041;-73
2023/04/20 08:56:58;;;;;;;7.68;3.90;;;12.70;50.80;;;;;;5055705;28;20017;-73
2023/04/20 08:59:24;;;;;;;9.93;4.38;;;12.70;50.80;;;;;;5034699;28;20040;-73
2023/04/20 09:01:50;;;;;;;7.30;4.10;;;12.80;50.90;;;;;;5032804;28;20026;-73
2023/04/20 09:04:24;;;;;;;8.68;4.35;;;12.70;50.80;;;;;;5048187;28;20094;-73
2023/04/20 09:06:52;;;;;;;8.80;4.38;;;12.70;50.90;;;;;;5055851;28;20343;-73
2023/04/20 09:09:19;;;;;;;7.07;4.05;;;12.70;51.00;;;;;;5054792;28;20057;-73
2023/04/20 09:11:46;;;;;;;8.02;4.05;;;12.60;51.10;;;;;;5039426;28;20025;-74
2023/04/20 09:14:14;;;;;;;8.27;4.28;;;12.60;51.20;;;;;;5038951;28;20029;-73
2023/04/20 09:17:01;;;;;;;8.18;4.25;;;12.60;51.30;;;;;;5041349;28;20443;-73
2023/04/20 09:19:29;;;;;;;7.93;4.20;;;12.60;51.50;;;;;;5055569;28;20029;-73
2023/04/20 09:22:00;;;;;;;8.38;4.18;;;12.60;51.50;;;;;;5054328;28;20032;-73
2023/04/20 09:24:33;;;;;;;6.45;3.28;;;12.60;51.60;;;;;;5034040;28;20470;-72
2023/04/20 09:27:01;;;;;;;9.23;4.10;;;12.60;51.60;;;;;;5051221;28;20025;-72
2023/04/20 09:29:27;;;;;;;7.28;3.83;;;12.60;51.60;;;;;;5039214;28;20067;-73
2023/04/20 09:31:53;;;;;;;7.65;3.67;;;12.50;52.20;;;;;;5055838;28;20029;-73
2023/04/20 09:34:19;;;;;;;7.13;3.90;;;12.50;51.70;;;;;;5040759;28;20061;-73
2023/04/20 09:36:48;;;;;;;8.65;4.10;;;12.50;51.90;;;;;;5055220;28;20091;-73
2023/04/20 09:39:17;;;;;;;7.28;3.92;;;12.40;52.00;;;;;;5056044;28;20449;-72
2023/04/20 09:41:43;;;;;;;8.52;3.95;;;12.40;52.00;;;;;;5055035;28;20025;-72
2023/04/20 09:44:10;;;;;;;9.05;4.00;;;12.30;52.10;;;;;;5039268;28;20079;-73
2023/04/20 09:46:39;;;;;;;9.02;4.57;;;12.20;52.20;;;;;;5055762;28;20052;-72
2023/04/20 09:49:11;;;;;;;7.32;3.80;;;12.20;52.40;;;;;;5054846;28;20128;-73
2023/04/20 09:51:40;;;;;;;7.82;3.45;;;12.10;52.40;;;;;;5054792;28;20033;-72
2023/04/20 09:54:06;;;;;;;6.95;3.75;;;12.10;52.40;;;;;;5043246;28;20032;-73
2023/04/20 09:56:34;;;;;;;7.45;3.97;;;12.20;52.50;;;;;;5052397;28;20021;-73
2023/04/20 09:59:01;;;;;;;6.85;3.45;;;12.30;52.30;;;;;;5055772;28;20346;-73
2023/04/20 10:01:30;;;;;;;7.43;3.35;;;12.40;52.20;;;;;;5054766;28;20036;-72
2023/04/20 10:03:58;;;;;;;7.35;3.55;;;12.60;51.80;;;;;;5045977;28;20037;-72
2023/04/20 10:06:29;;;;;;;7.22;3.47;;;12.80;51.40;;;;;;5022014;28;20120;-73
2023/04/20 10:08:56;;;;;;;7.13;3.38;;;12.90;51.20;;;;;;5037753;28;20029;-76
2023/04/20 10:11:29;;;;;;;9.35;3.35;;;13.00;51.00;;;;;;5035477;28;20018;-74
2023/04/20 10:13:56;;;;;;;7.18;3.53;;;13.10;50.90;;;;;;5023037;28;20112;-72
2023/04/20 10:16:22;;;;;;;8.50;3.28;;;13.20;50.70;;;;;;5032982;28;20053;-72
2023/04/20 10:19:02;;;;;;;6.18;3.53;;;13.30;50.50;;;;;;5050808;28;20033;-72
2023/04/20 10:21:32;;;;;;;6.60;3.28;;;13.30;50.40;;;;;;5039447;28;20365;-72
2023/04/20 10:24:02;;;;;;;7.45;3.67;;;13.30;50.40;;;;;;5050887;28;20032;-70
2023/04/20 10:26:39;;;;;;;7.50;3.28;;;13.40;50.30;;;;;;5030180;28;20095;-70
2023/04/20 10:29:07;;;;;;;7.85;3.35;;;13.50;50.10;;;;;;5053833;28;20025;-70
2023/04/20 10:31:38;;;;;;;6.60;2.97;;;13.80;49.90;;;;;;5043207;28;20029;-70
2023/04/20 10:34:04;;;;;;;8.90;3.07;;;14.10;49.50;;;;;;5029437;28;20040;-70
2023/04/20 10:36:35;;;;;;;6.15;3.20;;;14.50;49.00;;;;;;5014658;28;20029;-70
2023/04/20 10:39:16;;;;;;;6.97;3.17;;;14.80;48.50;;;;;;5047620;28;20074;-70
2023/04/20 10:41:53;;;;;;;6.03;2.78;;;15.00;48.00;;;;;;5050452;28;20214;-70
2023/04/20 10:44:19;;;;;;;10.13;3.65;;;15.00;48.00;;;;;;5054041;28;20098;-70
2023/04/20 10:46:49;;;;;;;6.80;3.05;;;15.00;47.90;;;;;;5032333;28;20045;-71
2023/04/20 10:49:15;;;;;;;6.75;2.80;;;14.90;47.70;;;;;;5030107;28;20426;-71
2023/04/20 10:51:49;;;;;;;7.60;3.35;;;14.70;47.60;;;;;;5020542;28;20022;-69
2023/04/20 10:54:15;;;;;;;6.70;3.35;;;14.50;47.80;;;;;;5027666;28;20049;-70
2023/04/20 10:56:46;;;;;;;7.10;3.13;;;14.40;48.00;;;;;;5015117;28;20054;-69
2023/04/20 10:59:23;;;;;;;7.55;3.10;;;14.50;48.00;;;;;;5017220;28;20385;-70
2023/04/20 11:01:50;;;;;;;5.90;3.20;;;14.60;47.80;;;;;;5019712;28;20029;-70
2023/04/20 11:04:16;;;;;;;8.35;3.05;;;14.70;47.60;;;;;;5018259;28;20026;-69
2023/04/20 11:06:46;;;;;;;7.38;3.08;;;14.70;47.60;;;;;;5017979;28;20025;-69
2023/04/20 11:09:25;;;;;;;6.20;3.00;;;14.70;47.60;;;;;;5017002;28;20080;-69
2023/04/20 11:12:02;;;;;;;6.40;3.17;;;14.50;47.50;;;;;;5017820;28;20029;-69
2023/04/20 11:14:29;;;;;;;6.50;2.65;;;14.30;47.70;;;;;;5015544;28;20056;-70
2023/04/20 11:16:55;;;;;;;5.65;2.90;;;14.10;47.90;;;;;;5018700;28;20128;-70
2023/04/20 11:19:26;;;;;;;7.30;3.38;;;13.90;48.10;;;;;;5033289;28;20109;-69
2023/04/20 11:21:52;;;;;;;6.80;3.53;;;13.70;48.20;;;;;;5018248;28;20044;-69
2023/04/20 11:24:20;;;;;;;8.13;3.35;;;13.60;48.30;;;;;;5017735;28;20026;-69
2023/04/20 11:26:50;;;;;;;6.30;3.30;;;13.50;48.50;;;;;;5021288;28;20033;-69
2023/04/20 11:29:37;;;;;;;8.02;3.40;;;13.50;48.60;;;;;;5016484;28;20033;-70
2023/04/20 11:32:08;;;;;;;6.63;3.40;;;13.40;48.60;;;;;;5031742;28;20032;-71
2023/04/20 11:34:35;;;;;;;7.88;3.40;;;13.40;48.80;;;;;;5033158;28;20439;-70
2023/04/20 11:37:09;;;;;;;6.43;3.42;;;13.40;48.80;;;;;;5045199;28;20025;-70
2023/04/20 11:39:36;;;;;;;8.65;3.90;;;13.40;48.80;;;;;;5038761;28;20055;-70
2023/04/20 11:42:02;;;;;;;6.70;3.63;;;13.50;48.70;;;;;;5034165;28;20047;-70
2023/04/20 11:44:28;;;;;;;7.55;3.55;;;13.50;48.60;;;;;;5033062;28;20048;-70
2023/04/20 11:46:56;;;;;;;6.32;3.30;;;13.50;48.50;;;;;;5038126;28;20460;-70
2023/04/20 11:49:26;;;;;;;7.82;3.80;;;13.50;48.50;;;;;;5030328;28;20018;-70
2023/04/20 11:51:52;;;;;;;6.43;3.45;;;13.50;48.60;;;;;;5029878;28;20041;-70
2023/04/20 11:54:18;;;;;;;7.32;3.55;;;13.50;48.60;;;;;;5013172;28;20029;-71
2023/04/20 11:56:44;;;;;;;7.22;3.70;;;13.50;48.70;;;;;;5034818;28;20033;-70
2023/04/20 11:59:18;;;;;;;7.13;3.78;;;13.40;49.40;;;;;;5045581;28;20029;-71
2023/04/20 12:01:44;;;;;;;6.60;3.30;;;13.40;48.90;;;;;;5035118;28;20080;-71
2023/04/20 12:04:10;;;;;;;6.57;3.75;;;13.40;49.00;;;;;;5038051;28;20033;-71
2023/04/20 12:06:36;;;;;;;8.18;4.22;;;13.40;49.10;;;;;;5037245;28;20033;-70
2023/04/20 12:09:04;;;;;;;7.63;3.88;;;13.30;49.10;;;;;;5034920;28;20021;-71
2023/04/20 12:11:30;;;;;;;8.85;4.28;;;13.30;49.30;;;;;;5029834;28;20366;-68
2023/04/20 12:13:56;;;;;;;7.63;3.75;;;13.30;49.40;;;;;;5041470;28;20021;-68
2023/04/20 12:16:23;;;;;;;8.85;3.90;;;13.30;49.40;;;;;;5039916;28;20056;-69
2023/04/20 12:18:49;;;;;;;7.95;4.25;;;13.30;49.40;;;;;;5032443;28;20096;-68
2023/04/20 12:21:15;;;;;;;8.43;4.25;;;13.30;49.20;;;;;;5012622;28;20049;-69
2023/04/20 12:23:42;;;;;;;8.05;3.75;;;13.30;49.20;;;;;;5028665;28;20427;-69
2023/04/20 12:26:08;;;;;;;8.27;4.30;;;13.20;49.30;;;;;;5030917;28;20542;-70
2023/04/20 12:28:34;;;;;;;7.78;4.38;;;13.20;49.30;;;;;;5029125;28;20459;-70
2023/04/20 12:31:01;;;;;;;9.65;4.55;;;13.10;49.50;;;;;;5028389;28;20029;-71
2023/04/20 12:33:26;;;;;;;8.07;4.50;;;13.00;49.60;;;;;;5028643;28;20029;-71
2023/04/20 12:35:52;;;;;;;8.10;4.45;;;13.00;49.80;;;;;;5012792;28;20036;-72
2023/04/20 12:38:18;;;;;;;7.38;3.83;;;13.00;49.80;;;;;;5021737;28;20029;-72
2023/04/20 12:40:44;;;;;;;7.43;4.28;;;13.10;49.70;;;;;;5035788;28;20036;-72
2023/04/20 12:43:10;;;;;;;7.68;4.57;;;13.10;49.70;;;;;;5046839;28;20033;-72
2023/04/20 12:45:35;;;;;;;9.75;4.85;;;13.20;49.70;;;;;;5039094;28;20041;-72
2023/04/20 12:48:01;;;;;;;8.00;4.25;;;13.20;49.70;;;;;;5039822;28;20057;-72
2023/04/20 12:50:27;;;;;;;7.72;3.88;;;13.20;49.70;;;;;;5045414;28;20028;-71